createdAt,value
2018-01-03T00:00:44.147Z,97331.04
2018-01-03T00:03:11.671Z,97339.91
2018-01-03T00:05:39.202Z,97321.23
2018-01-03T00:08:24.506Z,97310.75
2018-01-03T00:10:52.032Z,97301.91
2018-01-03T00:13:19.546Z,97295.77
2018-01-03T00:15:47.052Z,97279.44
2018-01-03T00:18:14.565Z,97287.47
2018-01-03T00:20:42.105Z,97278.63
2018-01-03T00:23:09.611Z,97265.78
2018-01-03T00:25:37.149Z,97262.97
2018-01-03T00:28:04.687Z,97264.73
2018-01-03T00:30:32.196Z,97263.15
2018-01-03T00:32:59.713Z,97253.45
2018-01-03T00:35:27.231Z,97252.42
2018-01-03T00:37:54.751Z,97244.16
2018-01-03T00:40:22.258Z,97234.87
2018-01-03T00:42:49.780Z,97233.38
2018-01-03T00:45:17.278Z,97233.95
2018-01-03T00:47:44.802Z,97233.63
2018-01-03T00:50:12.336Z,97218.04
2018-01-03T00:52:39.842Z,97224.08
2018-01-03T00:55:07.348Z,97216.83
2018-01-03T00:57:34.871Z,97198.05
2018-01-03T01:00:02.391Z,97180.43
2018-01-03T01:02:29.893Z,97177.52
2018-01-03T01:04:57.423Z,97169.08
2018-01-03T01:07:24.922Z,97151.86
2018-01-03T01:09:52.441Z,97139.81
2018-01-03T01:12:19.963Z,97152.53
2018-01-03T01:14:47.496Z,97156.79
2018-01-03T01:17:15.004Z,97150.75
2018-01-03T01:19:42.528Z,97152.50
2018-01-03T01:22:10.072Z,97149.76
2018-01-03T01:24:37.588Z,97142.24
2018-01-03T01:27:05.121Z,97129.84
2018-01-03T01:29:32.633Z,97140.64
2018-01-03T01:32:00.152Z,97128.63
2018-01-03T01:34:27.696Z,97138.36
2018-01-03T01:36:55.197Z,97133.33
2018-01-03T01:39:22.731Z,97120.70
2018-01-03T01:41:50.251Z,97113.36
2018-01-03T01:44:17.765Z,97112.75
2018-01-03T01:46:45.303Z,97096.17
2018-01-03T01:49:12.827Z,97105.20
2018-01-03T01:51:40.347Z,97093.80
2018-01-03T01:54:07.893Z,97087.94
2018-01-03T01:56:35.444Z,97093.91
2018-01-03T01:59:02.937Z,97086.77
2018-01-03T02:01:30.446Z,97048.86
2018-01-03T02:03:57.956Z,97024.61
2018-01-03T02:06:25.476Z,97031.22
2018-01-03T02:08:53.022Z,97029.23
2018-01-03T02:11:20.550Z,97027.66
2018-01-03T02:13:48.077Z,97015.08
2018-01-03T02:16:15.983Z,97015.44
2018-01-03T02:18:43.492Z,97001.59
2018-01-03T02:21:10.997Z,97017.13
2018-01-03T02:23:38.518Z,97009.76
2018-01-03T02:26:06.078Z,97007.55
2018-01-03T02:28:33.599Z,96980.84
2018-01-03T02:31:01.101Z,96972.18
2018-01-03T02:33:28.614Z,96965.33
2018-01-03T02:35:56.149Z,96959.17
2018-01-03T02:38:33.552Z,96949.09
2018-01-03T02:41:01.057Z,96945.98
2018-01-03T02:43:28.583Z,96933.47
2018-01-03T02:45:56.096Z,96921.97
2018-01-03T02:48:23.609Z,96915.19
2018-01-03T02:50:51.101Z,96891.48
2018-01-03T02:53:19.512Z,96864.56
2018-01-03T02:55:47.017Z,96839.09
2018-01-03T02:58:14.528Z,96827.36
2018-01-03T03:00:42.057Z,96812.91
2018-01-03T03:03:09.589Z,96813.00
2018-01-03T03:05:37.102Z,96804.41
2018-01-03T03:08:04.660Z,96806.31
2018-01-03T03:10:32.159Z,96782.34
2018-01-03T03:12:59.661Z,96790.88
2018-01-03T03:15:27.178Z,96777.78
2018-01-03T03:17:54.692Z,96739.07
2018-01-03T03:20:22.197Z,96722.62
2018-01-03T03:22:49.699Z,96734.84
2018-01-03T03:25:17.207Z,96729.98
2018-01-03T03:27:44.757Z,96717.18
2018-01-03T03:30:12.278Z,96696.52
2018-01-03T03:32:39.803Z,96684.55
2018-01-03T03:35:07.318Z,96676.12
2018-01-03T03:37:34.826Z,96668.13
2018-01-03T03:40:02.364Z,96645.22
2018-01-03T03:42:29.887Z,96627.68
2018-01-03T03:44:57.387Z,96588.94
2018-01-03T03:47:24.966Z,96575.55
2018-01-03T03:49:52.442Z,96600.39
2018-01-03T03:52:20.006Z,96596.20
2018-01-03T03:54:47.486Z,96581.82
2018-01-03T03:57:14.999Z,96562.80
2018-01-03T03:59:42.513Z,96543.61
2018-01-03T04:02:10.019Z,96539.31
2018-01-03T04:04:37.513Z,96527.04
2018-01-03T04:07:05.027Z,96519.23
2018-01-03T04:09:32.546Z,96507.38
2018-01-03T04:12:00.059Z,96496.36
2018-01-03T04:14:27.566Z,96500.92
2018-01-03T04:16:55.077Z,96497.08
2018-01-03T04:19:22.596Z,96496.70
2018-01-03T04:21:50.126Z,96502.31
2018-01-03T04:24:17.639Z,96487.05
2018-01-03T04:26:45.157Z,96475.93
2018-01-03T04:29:12.678Z,96457.00
2018-01-03T04:31:40.194Z,96439.21
2018-01-03T04:34:07.718Z,96421.81
2018-01-03T04:36:35.239Z,96393.77
2018-01-03T04:39:03.532Z,96358.64
2018-01-03T04:41:31.051Z,96375.50
2018-01-03T04:43:58.553Z,96355.27
2018-01-03T04:46:26.053Z,96353.98
2018-01-03T04:48:53.563Z,96333.09
2018-01-03T04:51:21.090Z,96324.93
2018-01-03T04:53:48.627Z,96303.25
2018-01-03T04:56:16.143Z,96303.80
2018-01-03T04:58:43.648Z,96289.09
2018-01-03T05:01:11.182Z,96267.30
2018-01-03T05:03:38.719Z,96271.12
2018-01-03T05:06:06.276Z,96252.11
2018-01-03T05:08:33.787Z,96260.58
2018-01-03T05:11:01.647Z,96243.12
2018-01-03T05:13:29.284Z,96244.23
2018-01-03T05:15:56.802Z,96241.64
2018-01-03T05:18:24.351Z,96231.22
2018-01-03T05:20:51.872Z,96222.52
2018-01-03T05:23:19.407Z,96207.28
2018-01-03T05:25:46.953Z,96168.86
2018-01-03T05:28:14.510Z,96157.59
2018-01-03T05:30:42.032Z,96153.34
2018-01-03T05:33:09.562Z,96119.70
2018-01-03T05:35:37.077Z,96084.72
2018-01-03T05:38:04.574Z,96083.37
2018-01-03T05:40:32.088Z,96068.67
2018-01-03T05:42:59.601Z,96053.37
2018-01-03T05:45:27.129Z,96033.89
2018-01-03T05:47:54.669Z,96017.77
2018-01-03T05:50:22.304Z,96014.78
2018-01-03T05:52:49.797Z,96017.25
2018-01-03T05:55:17.357Z,95967.73
2018-01-03T05:57:44.898Z,95950.16
2018-01-03T06:00:12.472Z,95945.65
2018-01-03T06:02:39.989Z,95911.69
2018-01-03T06:05:07.524Z,95919.30
2018-01-03T06:07:35.103Z,95930.44
2018-01-03T06:10:02.633Z,95930.92
2018-01-03T06:12:30.172Z,95925.34
2018-01-03T06:14:57.722Z,95909.23
2018-01-03T06:17:25.247Z,95918.95
2018-01-03T06:19:52.802Z,95919.38
2018-01-03T06:22:20.347Z,95880.91
2018-01-03T06:24:47.868Z,95803.56
2018-01-03T06:27:15.419Z,95849.50
2018-01-03T06:29:42.920Z,95872.86
2018-01-03T06:32:10.447Z,95854.35
2018-01-03T06:34:37.968Z,95864.61
2018-01-03T06:37:05.516Z,95867.88
2018-01-03T06:39:33.058Z,95844.72
2018-01-03T06:42:00.559Z,95826.98
2018-01-03T06:44:28.073Z,95831.16
2018-01-03T06:46:55.604Z,95807.76
2018-01-03T06:49:23.122Z,95809.73
2018-01-03T06:51:50.639Z,95806.59
2018-01-03T06:54:18.177Z,95817.77
2018-01-03T06:56:45.697Z,95832.91
2018-01-03T06:59:13.218Z,95813.41
2018-01-03T07:01:40.738Z,95821.38
2018-01-03T07:04:08.244Z,95841.56
2018-01-03T07:06:35.778Z,95858.14
2018-01-03T07:09:03.298Z,95819.94
2018-01-03T07:11:30.824Z,95807.02
2018-01-03T07:13:58.347Z,95801.90
2018-01-03T07:16:25.889Z,95824.48
2018-01-03T07:18:53.417Z,95823.06
2018-01-03T07:21:20.939Z,95811.09
2018-01-03T07:23:48.475Z,95809.59
2018-01-03T07:26:16.012Z,95772.95
2018-01-03T07:28:43.588Z,95754.25
2018-01-03T07:31:11.153Z,95750.05
2018-01-03T07:33:38.672Z,95756.06
2018-01-03T07:36:06.223Z,95766.37
2018-01-03T07:38:33.740Z,95777.94
2018-01-03T07:41:01.286Z,95794.45
2018-01-03T07:43:28.815Z,95817.69
2018-01-03T07:45:56.348Z,96019.69
2018-01-03T07:48:23.867Z,96065.63
2018-01-03T07:50:51.419Z,121507.88
2018-01-03T07:53:19.083Z,121507.88
2018-01-03T07:55:46.659Z,121507.88
2018-01-03T07:58:14.197Z,121507.88
2018-01-03T08:00:41.749Z,121507.88
2018-01-03T08:03:09.284Z,121507.88
2018-01-03T08:05:36.825Z,121507.88
2018-01-03T08:08:04.377Z,121507.88
2018-01-03T08:10:31.929Z,121507.88
2018-01-03T08:12:59.500Z,121507.88
2018-01-03T08:15:27.054Z,121507.88
2018-01-03T08:17:54.629Z,121507.88
2018-01-03T08:20:22.157Z,121507.88
2018-01-03T08:22:49.730Z,121507.88
2018-01-03T08:25:17.235Z,121507.88
2018-01-03T08:27:44.796Z,121507.88
2018-01-03T08:30:12.329Z,121507.88
2018-01-03T08:32:39.872Z,121507.88
2018-01-03T08:35:07.444Z,121507.88
2018-01-03T08:37:35.004Z,121507.88
2018-01-03T08:40:02.551Z,121507.88
2018-01-03T08:42:30.108Z,121507.88
2018-01-03T08:44:57.635Z,121507.88
2018-01-03T08:47:25.179Z,121507.88
2018-01-03T08:49:52.724Z,121507.88
2018-01-03T08:52:20.260Z,121507.88
2018-01-03T08:54:47.824Z,121507.88
2018-01-03T08:57:15.389Z,121507.88
2018-01-03T08:59:42.945Z,121507.88
2018-01-03T09:02:10.489Z,121507.88
2018-01-03T09:04:38.039Z,121507.88
2018-01-03T09:07:05.581Z,121507.88
2018-01-03T09:09:33.168Z,121507.88
2018-01-03T09:12:00.725Z,121507.88
2018-01-03T09:14:28.275Z,121507.88
2018-01-03T09:16:55.815Z,121507.88
2018-01-03T09:19:23.351Z,121507.88
2018-01-03T09:21:50.891Z,121507.88
2018-01-03T09:24:18.438Z,121507.88
2018-01-03T09:26:45.958Z,121507.88
2018-01-03T09:29:13.498Z,121507.88
2018-01-03T09:31:41.092Z,121507.88
2018-01-03T09:34:08.620Z,121507.88
2018-01-03T09:36:36.265Z,121507.88
2018-01-03T09:39:03.838Z,121507.88
2018-01-03T09:41:31.386Z,121507.88
2018-01-03T09:43:59.044Z,121507.88
2018-01-03T09:46:26.610Z,121507.88
2018-01-03T09:48:54.134Z,121507.88
2018-01-03T09:51:21.683Z,121507.88
2018-01-03T09:53:49.211Z,121507.88
2018-01-03T09:56:17.276Z,121507.88
2018-01-03T09:58:44.808Z,121507.88
2018-01-03T10:01:12.355Z,121507.88
2018-01-03T10:03:39.918Z,121507.88
2018-01-03T10:06:07.456Z,121507.88
2018-01-03T10:08:35.052Z,121507.88
2018-01-03T10:11:02.610Z,121507.88
2018-01-03T10:13:30.195Z,121507.88
2018-01-03T10:15:57.746Z,121507.88
2018-01-03T10:18:25.293Z,121507.88
2018-01-03T10:20:52.871Z,121507.88
2018-01-03T10:23:20.435Z,121507.88
2018-01-03T10:25:47.976Z,121507.88
2018-01-03T10:28:15.557Z,121507.88
2018-01-03T10:30:43.186Z,121507.88
2018-01-03T10:33:10.736Z,121507.88
2018-01-03T10:42:24.135Z,121507.88
2018-01-03T10:44:51.791Z,121507.88
2018-01-03T10:47:19.336Z,121507.88
2018-01-03T10:49:46.879Z,121507.88
2018-01-03T10:52:14.459Z,121507.88
2018-01-03T10:54:42.005Z,121507.88
2018-01-03T10:57:09.544Z,121507.88
2018-01-03T10:59:37.262Z,121507.88
2018-01-03T11:02:04.804Z,121507.88
2018-01-03T11:04:32.354Z,121507.88
2018-01-03T11:06:59.889Z,121507.88
2018-01-03T11:09:27.444Z,121507.88
2018-01-03T11:11:54.990Z,121507.88
2018-01-03T11:14:22.555Z,121507.88
2018-01-03T11:16:50.095Z,121507.88
2018-01-03T11:19:17.645Z,121507.88
2018-01-03T11:21:45.180Z,121507.88
2018-01-03T11:24:12.736Z,121507.88
2018-01-03T11:26:40.290Z,121507.88
2018-01-03T11:29:07.837Z,121507.88
2018-01-03T11:31:35.393Z,121507.88
2018-01-03T11:34:02.934Z,121507.88
2018-01-03T11:36:30.511Z,121507.88
2018-01-03T11:38:58.044Z,121507.88
2018-01-03T11:41:25.602Z,121507.88
2018-01-03T11:43:53.169Z,121507.88
2018-01-03T11:46:20.704Z,121507.88
2018-01-03T11:48:48.261Z,121507.88
2018-01-03T11:51:16.014Z,121507.88
2018-01-03T11:53:43.554Z,121507.88
2018-01-03T11:56:11.095Z,121507.88
2018-01-03T11:58:38.639Z,121507.88
2018-01-03T12:01:06.173Z,121507.88
2018-01-03T12:03:33.736Z,121507.88
2018-01-03T12:06:01.404Z,121507.88
2018-01-03T12:08:28.950Z,121507.88
2018-01-03T12:10:56.491Z,121507.88
2018-01-03T12:13:24.036Z,121507.88
2018-01-03T12:15:51.573Z,121507.88
2018-01-03T12:18:19.109Z,121507.88
2018-01-03T12:20:46.644Z,121507.88
2018-01-03T12:23:14.171Z,121507.88
2018-01-03T12:25:41.713Z,121507.88
2018-01-03T12:28:09.259Z,121507.88
2018-01-03T12:30:36.804Z,121507.88
2018-01-03T12:33:04.355Z,121507.88
2018-01-03T12:35:31.884Z,121507.88
2018-01-03T12:37:59.427Z,121507.88
2018-01-03T12:40:26.971Z,121507.88
2018-01-03T12:42:54.545Z,121507.88
2018-01-03T12:45:22.092Z,121507.88
2018-01-03T12:47:49.711Z,121507.88
2018-01-03T12:50:17.264Z,121507.88
2018-01-03T12:52:44.810Z,121507.88
2018-01-03T12:55:12.355Z,121507.88
2018-01-03T12:57:39.900Z,121507.88
2018-01-03T13:00:07.474Z,121507.88
2018-01-03T13:02:35.032Z,121507.88
2018-01-03T13:05:02.599Z,121507.88
2018-01-03T13:07:30.163Z,121507.88
2018-01-03T13:09:57.724Z,121507.88
2018-01-03T13:12:25.269Z,121507.88
2018-01-03T13:14:52.819Z,121507.88
2018-01-03T13:17:20.376Z,121507.88
2018-01-03T13:19:47.920Z,121507.88
2018-01-03T13:22:15.449Z,121507.88
2018-01-03T13:24:42.969Z,121507.88
2018-01-03T13:27:10.495Z,121507.88
2018-01-03T13:29:38.036Z,121507.88
2018-01-03T13:32:05.587Z,121507.88
2018-01-03T13:34:33.131Z,121507.88
2018-01-03T13:37:00.675Z,121507.88
2018-01-03T13:39:28.214Z,121507.88
2018-01-03T13:41:55.745Z,121507.88
2018-01-03T13:44:23.274Z,121507.88
2018-01-03T13:46:50.824Z,121507.88
2018-01-03T13:49:18.400Z,121507.88
2018-01-03T13:51:45.929Z,121507.88
2018-01-03T13:54:13.487Z,121507.88
2018-01-03T13:56:41.054Z,121507.88
2018-01-03T13:59:08.615Z,121507.88
2018-01-03T14:01:36.165Z,121507.88
2018-01-03T14:04:03.702Z,121507.88
2018-01-03T14:06:31.225Z,121507.88
2018-01-03T14:08:58.780Z,121507.88
2018-01-03T14:11:26.330Z,121507.88
2018-01-03T14:13:53.872Z,121507.88
2018-01-03T14:16:21.400Z,121507.88
2018-01-03T14:18:48.941Z,121507.88
2018-01-03T14:21:16.484Z,121507.88
2018-01-03T14:23:44.041Z,121507.88
2018-01-03T14:26:11.611Z,121507.88
2018-01-03T14:28:39.155Z,121507.88
2018-01-03T14:31:06.701Z,121507.88
2018-01-03T14:33:34.243Z,121507.88
2018-01-03T14:36:01.822Z,121507.88
2018-01-03T14:38:29.410Z,121507.88
2018-01-03T14:40:56.921Z,121507.88
2018-01-03T14:43:24.459Z,121507.88
2018-01-03T14:45:51.996Z,121507.88
2018-01-03T14:48:19.540Z,121507.88
2018-01-03T14:50:47.290Z,121507.88
2018-01-03T14:53:14.827Z,121507.88
2018-01-03T14:55:42.360Z,121507.88
2018-01-03T14:58:09.930Z,121507.88
2018-01-03T15:00:37.474Z,121507.88
2018-01-03T15:03:05.034Z,121507.88
2018-01-03T15:05:32.579Z,121507.88
2018-01-03T15:08:00.109Z,121507.88
2018-01-03T15:10:27.646Z,121507.88
2018-01-03T15:12:55.185Z,121507.88
2018-01-03T15:15:22.746Z,121507.88
2018-01-03T15:17:50.300Z,121507.88
2018-01-03T15:20:17.840Z,121507.88
2018-01-03T15:22:45.384Z,121507.88
2018-01-03T15:25:12.916Z,121507.88
2018-01-03T15:27:40.465Z,121507.88
2018-01-03T15:30:08.051Z,121507.88
2018-01-03T15:32:35.612Z,121507.88
2018-01-03T15:35:03.177Z,121507.88
2018-01-03T15:37:30.708Z,121507.88
2018-01-03T15:39:58.257Z,121507.88
2018-01-03T15:42:25.778Z,121507.88
2018-01-03T15:44:53.318Z,121507.88
2018-01-03T15:47:20.875Z,121507.88
2018-01-03T15:49:48.421Z,121507.88
2018-01-03T15:52:15.970Z,121507.88
2018-01-03T15:54:43.507Z,121507.88
2018-01-03T15:57:11.036Z,121507.88
2018-01-03T15:59:38.596Z,121507.88
2018-01-03T16:02:06.196Z,121507.88
2018-01-03T16:04:33.722Z,121507.88
2018-01-03T16:07:01.267Z,121507.88
2018-01-03T16:09:28.865Z,121507.88
2018-01-03T16:11:56.393Z,121507.88
2018-01-03T16:14:23.952Z,121507.88
2018-01-03T16:16:51.472Z,121507.88
2018-01-03T16:19:19.006Z,121507.88
2018-01-03T16:21:46.566Z,121507.88
2018-01-03T16:24:14.115Z,121507.88
2018-01-03T16:26:41.652Z,121507.88
2018-01-03T16:29:09.227Z,121507.88
2018-01-03T16:31:36.774Z,121507.88
2018-01-03T16:34:04.345Z,121507.88
2018-01-03T16:36:31.900Z,121507.88
2018-01-03T16:38:59.525Z,121507.88
2018-01-03T16:41:27.090Z,121507.88
2018-01-03T16:43:54.654Z,121507.88
2018-01-03T16:46:22.182Z,121507.88
2018-01-03T16:48:49.748Z,121507.88
2018-01-03T16:51:17.762Z,121507.88
2018-01-03T16:53:45.332Z,121507.88
2018-01-03T16:56:12.898Z,121507.88
2018-01-03T16:58:40.472Z,121507.88
2018-01-03T17:01:08.036Z,121507.88
2018-01-03T17:03:35.582Z,121507.88
2018-01-03T17:06:03.128Z,121507.88
2018-01-03T17:08:30.711Z,121507.88
2018-01-03T17:10:58.277Z,121507.88
2018-01-03T17:13:25.824Z,121507.88
2018-01-03T17:15:53.371Z,121507.88
2018-01-03T17:18:20.938Z,121507.88
2018-01-03T17:20:48.487Z,121507.88
2018-01-03T17:23:16.036Z,121507.88
2018-01-03T17:25:43.573Z,121507.88
2018-01-03T17:28:11.124Z,121507.88
2018-01-03T17:30:38.682Z,121507.88
2018-01-03T17:33:06.235Z,121507.88
2018-01-03T17:35:33.765Z,121507.88
2018-01-03T17:38:01.322Z,121507.88
2018-01-03T17:40:28.866Z,121507.88
2018-01-03T17:42:56.438Z,121507.88
2018-01-03T17:45:23.998Z,121507.88
2018-01-03T17:47:51.546Z,121507.88
2018-01-03T17:50:19.123Z,121507.88
2018-01-03T17:52:46.692Z,121507.88
2018-01-03T17:55:14.248Z,121507.88
2018-01-03T17:57:41.789Z,121507.88
2018-01-03T18:00:09.338Z,121507.88
2018-01-03T18:02:36.875Z,121507.88
2018-01-03T18:05:04.487Z,121507.88
2018-01-03T18:07:32.107Z,121507.88
2018-01-03T18:09:59.776Z,121507.88
2018-01-03T18:12:27.332Z,121507.88
2018-01-03T18:14:54.913Z,121507.88
2018-01-03T18:17:22.482Z,121507.88
2018-01-03T18:19:50.033Z,121507.88
2018-01-03T18:22:17.577Z,121507.88
2018-01-03T18:24:45.138Z,121507.88
2018-01-03T18:27:12.705Z,121507.88
2018-01-03T18:29:40.246Z,121507.88
2018-01-03T18:32:07.774Z,121507.88
2018-01-03T18:34:35.322Z,121507.88
2018-01-03T18:37:02.964Z,121507.88
2018-01-03T18:39:30.532Z,121507.88
2018-01-03T18:41:58.119Z,121507.88
2018-01-03T18:44:25.702Z,121507.88
2018-01-03T18:46:53.253Z,121507.88
2018-01-03T18:49:20.817Z,121507.88
2018-01-03T18:51:48.477Z,121507.88
2018-01-03T18:54:16.192Z,121507.88
2018-01-03T18:56:43.747Z,121507.88
2018-01-03T18:59:11.308Z,121507.88
2018-01-03T19:01:38.922Z,121507.88
2018-01-03T19:04:06.604Z,121507.88
2018-01-03T19:06:34.193Z,121507.88
2018-01-03T19:09:01.756Z,121507.88
2018-01-03T19:11:29.297Z,121507.88
2018-01-03T19:13:56.857Z,121507.88
2018-01-03T19:16:24.426Z,121507.88
2018-01-03T19:18:51.985Z,121507.88
2018-01-03T19:21:19.542Z,121507.88
2018-01-03T19:23:47.103Z,121507.88
2018-01-03T19:26:14.687Z,121507.88
2018-01-03T19:28:42.231Z,121507.88
2018-01-03T19:31:09.794Z,121507.88
2018-01-03T19:33:37.355Z,121507.88
2018-01-03T19:36:04.922Z,121507.88
2018-01-03T19:38:32.697Z,121507.88
2018-01-03T19:41:00.393Z,121507.88
2018-01-03T19:43:28.051Z,121507.88
2018-01-03T19:45:55.595Z,121507.88
2018-01-03T19:48:23.177Z,121507.88
2018-01-03T19:50:50.976Z,121507.88
2018-01-03T19:53:18.566Z,121507.88
2018-01-03T19:55:46.201Z,121507.88
2018-01-03T19:58:13.858Z,121507.88
2018-01-03T20:00:41.471Z,121507.88
2018-01-03T20:03:09.099Z,121507.88
2018-01-03T20:05:36.752Z,121507.88
2018-01-03T20:08:04.330Z,121507.88
2018-01-03T20:10:31.872Z,121507.88
2018-01-03T20:12:59.597Z,121507.88
2018-01-03T20:15:27.177Z,121507.88
2018-01-03T20:17:54.781Z,121507.88
2018-01-03T20:20:22.469Z,121507.88
2018-01-03T20:22:50.167Z,121507.88
2018-01-03T20:25:17.729Z,121507.88
2018-01-03T20:27:45.271Z,121507.88
2018-01-03T20:30:12.836Z,121507.88
2018-01-03T20:32:40.387Z,121507.88
2018-01-03T20:35:07.973Z,121507.88
2018-01-03T20:37:35.672Z,121507.88
2018-01-03T20:40:03.366Z,121507.88
2018-01-03T20:42:31.106Z,121507.88
2018-01-03T20:44:58.795Z,121507.88
2018-01-03T20:47:26.512Z,121507.88
2018-01-03T20:49:54.161Z,121507.88
2018-01-03T20:52:21.737Z,121507.88
2018-01-03T20:54:49.301Z,121507.88
2018-01-03T20:57:16.872Z,121507.88
2018-01-03T20:59:44.400Z,121507.88
2018-01-03T21:02:12.122Z,121507.88
2018-01-03T21:04:39.831Z,121507.88
2018-01-03T21:07:07.427Z,121507.88
2018-01-03T21:09:35.020Z,121507.88
2018-01-03T21:12:02.617Z,121507.88
2018-01-03T21:14:30.246Z,121507.88
2018-01-03T21:16:57.851Z,121507.88
2018-01-03T21:19:25.435Z,121507.88
2018-01-03T21:21:53.036Z,121507.88
2018-01-03T21:24:20.612Z,121507.88
2018-01-03T21:26:48.997Z,121507.88
2018-01-03T21:29:16.671Z,121507.88
2018-01-03T21:31:44.236Z,121507.88
2018-01-03T21:34:11.803Z,121507.88
2018-01-03T21:36:39.373Z,121507.88
2018-01-03T21:39:06.915Z,121507.88
2018-01-03T21:41:34.457Z,121507.88
2018-01-03T21:44:02.022Z,121507.88
2018-01-03T21:46:29.560Z,121507.88
2018-01-03T21:48:57.130Z,121507.88
2018-01-03T21:51:24.683Z,121507.88
2018-01-03T21:53:52.250Z,121507.88
2018-01-03T21:56:19.829Z,121507.88
2018-01-03T21:58:47.379Z,121507.88
2018-01-03T22:01:14.953Z,121507.88
2018-01-03T22:03:42.510Z,121507.88
2018-01-03T22:06:10.065Z,121507.88
2018-01-03T22:08:37.625Z,121507.88
2018-01-03T22:11:05.176Z,121507.88
2018-01-03T22:13:32.735Z,121507.88
2018-01-03T22:16:00.271Z,121507.88
2018-01-03T22:18:27.816Z,121507.88
2018-01-03T22:20:55.372Z,121507.88
2018-01-03T22:23:22.930Z,121507.88
2018-01-03T22:25:50.466Z,121507.88
2018-01-03T22:28:18.041Z,121507.88
2018-01-03T22:30:45.581Z,121507.88
2018-01-03T22:33:13.987Z,121507.88
2018-01-03T22:35:42.173Z,121507.88
2018-01-03T22:38:09.718Z,121507.88
2018-01-03T22:40:37.256Z,121507.88
2018-01-03T22:43:04.935Z,121507.88
2018-01-03T22:45:32.486Z,121507.88
2018-01-03T22:48:00.033Z,121507.88
2018-01-03T22:50:27.602Z,121507.88
2018-01-03T22:52:55.164Z,121507.88
2018-01-03T22:55:22.711Z,121507.88
2018-01-03T22:57:50.258Z,121507.88
2018-01-03T23:00:17.818Z,121507.88
2018-01-03T23:02:45.381Z,121507.88
2018-01-03T23:05:12.924Z,121507.88
2018-01-03T23:07:40.468Z,121507.88
2018-01-03T23:10:08.026Z,121507.88
2018-01-03T23:12:35.572Z,121507.88
2018-01-03T23:15:03.105Z,121507.88
2018-01-03T23:17:30.653Z,121507.88
2018-01-03T23:19:58.198Z,121507.88
2018-01-03T23:22:25.762Z,121507.88
2018-01-03T23:24:53.311Z,121507.88
2018-01-03T23:27:20.848Z,121507.88
2018-01-03T23:29:48.388Z,121507.88
2018-01-03T23:32:15.913Z,121507.88
2018-01-03T23:34:43.466Z,121507.88
2018-01-03T23:37:10.997Z,121507.88
2018-01-03T23:39:38.544Z,121507.88
2018-01-03T23:42:06.869Z,121507.88
2018-01-03T23:44:34.418Z,121507.88
2018-01-03T23:47:01.956Z,121507.88
2018-01-03T23:49:29.538Z,121507.88
2018-01-03T23:51:57.098Z,121507.88
2018-01-03T23:54:24.643Z,121507.88
2018-01-03T23:56:52.228Z,121507.88
2018-01-03T23:59:19.776Z,121507.88
